Airport View

Enter AWOS ICAO identifier for current METAR.

ex. KFNL

KORS 080630Z AUTO 00000KT 8SM BKN039 OVC050 14/14 A3014 RMK AO2

8 Aug 2020 06:29

Frequency: 135.425

Phone: 360-376-6045

Other Area AWOS: CWEZ - KFHR - KBLI - CWZO

TAF KBLI 080520Z 0806/0906 18005KT P6SM VCSH SCT035 BKN080 FM080900 19005KT P6SM OVC020 FM082000 19007KT P6SM OVC050 FM090300 17004KT P6SM SCT050